Terminal Aerodrome Forecast
Issued by NWS

Home | Current Version | Previous Version | Text Only | Print | Product List | Glossary On
Versions: 1 2 3 4 5 6 7 8 9 10 11 12 13 14 15
000
FTAK31 PAJN 260500 RRA
TAFAKT
TAF
PAKT 260543Z 2606/2706 16005KT P6SM VCSH SCT010 OVC040
      TEMPO 2606/2609 5SM BR BKN010 BKN040
     FM260900 VRB06KT P6SM VCFG SCT010 BKN040
     FM261200 31010KT P6SM VCFG SCT010 BKN070
      AMD LTD TO CLD VIS AND WIND 2606/2615=

USA.gov is the U.S. government's official web portal to all federal, state and local government web resources and services.